createdAt,value
2023-05-15T00:01:42.920Z,13.70
2023-05-15T00:04:45.937Z,13.63
2023-05-15T00:07:49.915Z,13.61
2023-05-15T00:11:00.934Z,13.50
2023-05-15T00:14:05.570Z,13.40
2023-05-15T00:17:14.572Z,13.36
2023-05-15T00:20:17.196Z,13.30
2023-05-15T00:23:23.371Z,13.23
2023-05-15T00:26:26.186Z,13.21
2023-05-15T00:29:29.067Z,13.15
2023-05-15T00:32:31.785Z,13.11
2023-05-15T00:35:37.508Z,13.07
2023-05-15T00:38:41.882Z,13.07
2023-05-15T00:41:46.143Z,13.04
2023-05-15T00:44:49.914Z,13.04
2023-05-15T00:47:54.160Z,13.04
2023-05-15T00:50:58.348Z,13.06
2023-05-15T00:54:03.400Z,13.06
2023-05-15T00:57:09.631Z,13.06
2023-05-15T01:00:16.761Z,13.05
2023-05-15T01:03:19.977Z,13.06
2023-05-15T01:06:22.988Z,13.03
2023-05-15T01:09:31.508Z,12.99
2023-05-15T01:12:36.971Z,13.02
2023-05-15T01:15:39.693Z,13.07
2023-05-15T01:18:44.791Z,13.10
2023-05-15T01:22:16.640Z,13.13
2023-05-15T01:25:57.524Z,13.17
2023-05-15T01:29:06.511Z,13.21
2023-05-15T01:32:12.999Z,13.31
2023-05-15T01:35:22.403Z,13.34
2023-05-15T01:38:31.662Z,13.33
2023-05-15T01:41:42.580Z,13.30
2023-05-15T01:44:54.617Z,13.28
2023-05-15T01:47:58.884Z,13.29
2023-05-15T01:51:04.495Z,13.29
2023-05-15T01:54:09.252Z,13.29
2023-05-15T01:57:13.019Z,13.30
2023-05-15T02:00:18.786Z,13.27
2023-05-15T02:03:21.845Z,13.15
2023-05-15T02:06:26.174Z,13.07
2023-05-15T02:09:29.782Z,12.99
2023-05-15T02:12:33.876Z,12.89
2023-05-15T02:15:38.888Z,12.85
2023-05-15T02:18:44.863Z,12.76
2023-05-15T02:21:47.588Z,12.73
2023-05-15T02:24:50.265Z,12.64
2023-05-15T02:27:58.576Z,12.59
2023-05-15T02:31:09.252Z,12.53
2023-05-15T02:34:22.757Z,12.44
2023-05-15T02:37:29.751Z,12.37
2023-05-15T02:40:34.313Z,12.34
2023-05-15T02:43:37.594Z,12.32
2023-05-15T02:46:42.701Z,12.32
2023-05-15T02:49:46.268Z,12.32
2023-05-15T02:52:48.996Z,12.33
2023-05-15T02:55:52.045Z,12.26
2023-05-15T02:58:55.111Z,12.23
2023-05-15T03:02:00.039Z,12.19
2023-05-15T03:05:08.648Z,12.21
2023-05-15T03:08:11.356Z,12.18
2023-05-15T03:11:14.383Z,12.21
2023-05-15T03:14:19.703Z,12.23
2023-05-15T03:17:23.732Z,12.27
2023-05-15T03:20:26.432Z,12.33
2023-05-15T03:23:29.121Z,12.43
2023-05-15T03:26:31.787Z,12.48
2023-05-15T03:29:40.647Z,12.48
2023-05-15T03:32:44.823Z,12.53
2023-05-15T03:35:51.216Z,12.61
2023-05-15T03:38:53.903Z,12.68
2023-05-15T03:41:56.585Z,12.69
2023-05-15T03:44:59.329Z,12.74
2023-05-15T03:48:03.717Z,12.81
2023-05-15T03:51:06.559Z,12.81
2023-05-15T03:54:09.888Z,12.79
2023-05-15T03:57:13.541Z,12.82
2023-05-15T04:00:18.470Z,12.86
2023-05-15T04:03:24.306Z,12.88
2023-05-15T04:06:27.234Z,12.89
2023-05-15T04:09:29.991Z,12.86
2023-05-15T04:12:35.819Z,12.81
2023-05-15T04:15:38.548Z,12.79
2023-05-15T04:18:42.719Z,12.81
2023-05-15T04:21:45.652Z,12.82
2023-05-15T04:24:48.344Z,12.78
2023-05-15T04:27:51.094Z,12.81
2023-05-15T04:30:53.743Z,12.79
2023-05-15T04:33:57.748Z,12.82
2023-05-15T04:37:02.088Z,12.86
2023-05-15T04:40:06.513Z,12.95
2023-05-15T04:43:09.335Z,13.04
2023-05-15T04:46:12.105Z,13.09
2023-05-15T04:49:16.609Z,13.10
2023-05-15T04:52:19.451Z,13.11
2023-05-15T04:55:22.348Z,13.09
2023-05-15T04:58:25.471Z,13.12
2023-05-15T05:01:28.196Z,13.13
2023-05-15T05:04:32.253Z,13.12
2023-05-15T05:07:35.636Z,13.15
2023-05-15T05:10:38.340Z,13.17
2023-05-15T05:13:41.990Z,13.17
2023-05-15T05:16:45.683Z,13.25
2023-05-15T05:19:49.736Z,13.36
2023-05-15T05:22:52.500Z,13.43
2023-05-15T05:25:55.204Z,13.47
2023-05-15T05:28:57.946Z,13.43
2023-05-15T05:32:01.411Z,13.42
2023-05-15T05:35:06.446Z,13.45
2023-05-15T05:38:09.212Z,13.50
2023-05-15T05:41:11.918Z,13.64
2023-05-15T05:44:14.621Z,13.72
2023-05-15T05:47:17.486Z,13.72
2023-05-15T05:50:21.695Z,13.69
2023-05-15T05:53:24.381Z,13.67
2023-05-15T05:56:27.303Z,13.69
2023-05-15T05:59:30.091Z,13.83
2023-05-15T06:02:32.846Z,14.23
2023-05-15T06:05:37.191Z,14.56
2023-05-15T06:08:40.052Z,15.11
2023-05-15T06:11:42.772Z,15.58
2023-05-15T06:14:45.477Z,15.98
2023-05-15T06:17:51.140Z,16.13
2023-05-15T06:20:55.228Z,16.20
2023-05-15T06:23:57.887Z,16.81
2023-05-15T06:27:01.090Z,17.54
2023-05-15T06:30:10.707Z,17.98
2023-05-15T06:33:13.485Z,18.02
2023-05-15T06:36:17.580Z,17.99
2023-05-15T06:39:20.235Z,17.88
2023-05-15T06:42:23.132Z,17.99
2023-05-15T06:45:27.407Z,17.98
2023-05-15T06:48:30.526Z,17.71
2023-05-15T06:51:34.577Z,17.39
2023-05-15T06:54:37.575Z,17.09
2023-05-15T06:57:40.449Z,16.87
2023-05-15T07:00:43.232Z,16.69
2023-05-15T07:03:45.897Z,16.78
2023-05-15T07:06:50.362Z,17.24
2023-05-15T07:09:53.055Z,17.81
2023-05-15T07:12:55.787Z,18.22
2023-05-15T07:15:58.511Z,18.37
2023-05-15T07:19:01.727Z,18.28
2023-05-15T07:22:06.225Z,18.49
2023-05-15T07:25:11.852Z,18.88
2023-05-15T07:28:14.619Z,18.66
2023-05-15T07:31:17.351Z,18.67
2023-05-15T07:34:20.200Z,19.04
2023-05-15T07:37:24.852Z,19.57
2023-05-15T07:40:27.704Z,19.95
2023-05-15T07:43:30.432Z,20.15
2023-05-15T07:46:33.265Z,19.96
2023-05-15T07:49:38.133Z,19.68
2023-05-15T07:52:45.252Z,19.41
2023-05-15T07:55:47.928Z,19.35
2023-05-15T07:58:50.702Z,19.22
2023-05-15T08:01:53.976Z,19.11
2023-05-15T08:04:56.662Z,19.11
2023-05-15T08:08:02.244Z,18.92
2023-05-15T08:11:09.900Z,18.85
2023-05-15T08:14:13.960Z,18.82
2023-05-15T08:17:17.041Z,18.78
2023-05-15T08:20:20.917Z,18.69
2023-05-15T08:23:25.122Z,18.75
2023-05-15T08:26:27.816Z,18.77
2023-05-15T08:29:30.523Z,18.74
2023-05-15T08:32:35.179Z,18.67
2023-05-15T08:35:41.223Z,18.55
2023-05-15T08:38:45.323Z,18.46
2023-05-15T08:41:54.398Z,18.38
2023-05-15T08:44:57.459Z,18.20
2023-05-15T08:48:03.282Z,18.07
2023-05-15T08:51:10.198Z,18.03
2023-05-15T08:54:14.412Z,18.04
2023-05-15T08:57:18.636Z,18.06
2023-05-15T09:00:22.996Z,18.10
2023-05-15T09:03:25.988Z,18.04
2023-05-15T09:06:29.256Z,18.07
2023-05-15T09:09:35.312Z,18.14
2023-05-15T09:12:43.046Z,18.27
2023-05-15T09:15:46.717Z,18.42
2023-05-15T09:18:50.911Z,18.63
2023-05-15T09:21:53.699Z,18.70
2023-05-15T09:24:58.204Z,18.89
2023-05-15T09:28:01.046Z,19.03
2023-05-15T09:31:05.665Z,19.07
2023-05-15T09:34:10.212Z,19.13
2023-05-15T09:37:29.423Z,19.29
2023-05-15T09:40:33.556Z,19.29
2023-05-15T09:43:38.825Z,19.31
2023-05-15T09:46:41.651Z,19.46
2023-05-15T09:49:45.684Z,19.45
2023-05-15T09:52:48.542Z,19.25
2023-05-15T09:55:54.056Z,19.25
2023-05-15T09:58:58.240Z,19.38
2023-05-15T10:02:00.985Z,19.56
2023-05-15T10:05:04.506Z,19.49
2023-05-15T10:08:10.225Z,19.54
2023-05-15T10:11:14.486Z,19.59
2023-05-15T10:14:19.547Z,19.48
2023-05-15T10:17:22.338Z,19.46
2023-05-15T10:20:26.978Z,19.58
2023-05-15T10:23:32.242Z,19.74
2023-05-15T10:26:41.465Z,19.92
2023-05-15T10:29:45.154Z,20.15
2023-05-15T10:32:49.970Z,19.97
2023-05-15T10:35:53.150Z,20.11
2023-05-15T10:38:55.968Z,20.32
2023-05-15T10:42:01.187Z,20.38
2023-05-15T10:45:09.900Z,20.40
2023-05-15T10:48:13.529Z,20.49
2023-05-15T10:51:17.436Z,20.54
2023-05-15T10:54:20.399Z,20.75
2023-05-15T10:57:24.703Z,20.65
2023-05-15T11:00:29.270Z,20.81
2023-05-15T11:03:48.890Z,20.92
2023-05-15T11:07:13.050Z,20.95
2023-05-15T11:10:37.657Z,21.02
2023-05-15T11:14:14.403Z,20.90
2023-05-15T11:17:17.695Z,20.78
2023-05-15T11:20:20.503Z,21.16
2023-05-15T11:23:24.715Z,21.27
2023-05-15T11:26:34.059Z,21.39
2023-05-15T11:29:38.111Z,21.31
2023-05-15T11:32:56.371Z,21.33
2023-05-15T11:36:01.165Z,21.39
2023-05-15T11:39:11.241Z,21.13
2023-05-15T11:42:14.892Z,21.15
2023-05-15T11:45:19.156Z,20.88
2023-05-15T11:48:24.822Z,20.90
2023-05-15T11:51:30.147Z,20.78
2023-05-15T11:54:33.466Z,20.89
2023-05-15T11:57:39.218Z,21.29
2023-05-15T12:00:44.508Z,21.39
2023-05-15T12:03:49.113Z,21.44
2023-05-15T12:06:52.565Z,21.62
2023-05-15T12:09:55.757Z,21.93
2023-05-15T12:12:59.778Z,21.95
2023-05-15T12:16:05.213Z,22.15
2023-05-15T12:19:08.266Z,22.39
2023-05-15T12:22:11.207Z,22.51
2023-05-15T12:25:17.759Z,22.39
2023-05-15T12:28:20.681Z,22.27
2023-05-15T12:31:24.988Z,21.81
2023-05-15T12:34:27.929Z,21.66
2023-05-15T12:37:33.621Z,21.57
2023-05-15T12:40:37.812Z,21.40
2023-05-15T12:43:41.244Z,21.36
2023-05-15T12:46:46.257Z,20.94
2023-05-15T12:49:48.994Z,20.94
2023-05-15T12:52:53.220Z,20.99
2023-05-15T12:55:55.993Z,20.99
2023-05-15T12:58:59.222Z,21.06
2023-05-15T13:02:03.425Z,21.07
2023-05-15T13:05:07.210Z,21.21
2023-05-15T13:08:10.109Z,21.38
2023-05-15T13:11:14.617Z,21.56
2023-05-15T13:14:19.532Z,21.70
2023-05-15T13:17:23.615Z,21.72
2023-05-15T13:20:26.676Z,21.83
2023-05-15T13:23:29.668Z,21.82
2023-05-15T13:26:32.492Z,21.92
2023-05-15T13:29:35.676Z,22.14
2023-05-15T13:32:39.849Z,22.35
2023-05-15T13:35:43.257Z,22.77
2023-05-15T13:39:06.584Z,22.83
2023-05-15T13:42:09.369Z,22.98
2023-05-15T13:45:14.544Z,22.43
2023-05-15T13:48:19.736Z,21.99
2023-05-15T13:51:22.497Z,21.81
2023-05-15T13:54:25.359Z,21.52
2023-05-15T13:57:28.042Z,21.22
2023-05-15T14:00:30.785Z,21.24
2023-05-15T14:03:35.138Z,20.95
2023-05-15T14:06:38.188Z,20.99
2023-05-15T14:09:41.151Z,20.90
2023-05-15T14:12:44.224Z,20.86
2023-05-15T14:15:47.126Z,20.95
2023-05-15T14:18:51.138Z,21.28
2023-05-15T14:21:54.005Z,21.69
2023-05-15T14:24:56.845Z,21.91
2023-05-15T14:27:59.783Z,22.06
2023-05-15T14:31:02.546Z,22.00
2023-05-15T14:34:07.037Z,21.73
2023-05-15T14:37:09.989Z,21.51
2023-05-15T14:40:13.618Z,21.52
2023-05-15T14:43:16.625Z,21.39
2023-05-15T14:46:20.368Z,21.29
2023-05-15T14:49:25.394Z,21.33
2023-05-15T14:52:29.146Z,21.32
2023-05-15T14:55:34.176Z,21.30
2023-05-15T14:58:37.588Z,21.45
2023-05-15T15:01:40.720Z,21.64
2023-05-15T15:04:45.075Z,21.78
2023-05-15T15:08:02.657Z,21.95
2023-05-15T15:11:06.552Z,22.07
2023-05-15T15:14:09.678Z,22.09
2023-05-15T15:17:12.883Z,22.07
2023-05-15T15:20:27.002Z,22.11
2023-05-15T15:23:32.472Z,22.16
2023-05-15T15:26:35.538Z,22.26
2023-05-15T15:29:38.453Z,22.30
2023-05-15T15:32:42.381Z,22.30
2023-05-15T15:35:48.255Z,22.24
2023-05-15T15:38:51.303Z,22.19
2023-05-15T15:41:54.556Z,22.16
2023-05-15T15:44:59.443Z,22.10
2023-05-15T15:48:02.380Z,22.10
2023-05-15T15:51:07.195Z,21.99
2023-05-15T15:54:10.540Z,21.95
2023-05-15T16:01:06.400Z,21.74
2023-05-15T16:04:45.195Z,21.51
2023-05-15T16:08:17.759Z,21.35
2023-05-15T16:11:44.190Z,21.43
2023-05-15T16:15:21.050Z,21.23
2023-05-15T16:18:55.377Z,21.01
2023-05-15T16:22:03.602Z,20.80
2023-05-15T16:25:45.391Z,20.65
2023-05-15T16:28:56.956Z,20.61
2023-05-15T16:32:12.943Z,20.60
2023-05-15T16:35:41.808Z,20.11
2023-05-15T16:39:31.483Z,20.28
2023-05-15T16:42:52.719Z,20.21
2023-05-15T16:45:55.589Z,20.49
2023-05-15T16:48:58.282Z,20.44
2023-05-15T16:52:01.332Z,20.36
2023-05-15T16:55:04.452Z,20.31
2023-05-15T16:58:08.629Z,20.21
2023-05-15T17:01:11.448Z,20.18
2023-05-15T17:04:14.162Z,20.13
2023-05-15T17:07:16.835Z,20.08
2023-05-15T17:10:19.703Z,20.04
2023-05-15T17:13:25.110Z,20.08
2023-05-15T17:16:29.364Z,20.07
2023-05-15T17:19:34.295Z,20.00
2023-05-15T17:22:37.183Z,19.98
2023-05-15T17:25:39.840Z,19.98
2023-05-15T17:28:43.837Z,19.95
2023-05-15T17:31:47.280Z,19.87
2023-05-15T17:34:51.481Z,19.70
2023-05-15T17:37:54.217Z,19.68
2023-05-15T17:40:56.922Z,19.56
2023-05-15T17:44:01.028Z,19.54
2023-05-15T17:47:03.772Z,19.53
2023-05-15T17:50:07.709Z,19.46
2023-05-15T17:53:10.454Z,19.32
2023-05-15T17:56:13.334Z,19.36
2023-05-15T17:59:17.549Z,19.21
2023-05-15T18:02:20.271Z,19.15
2023-05-15T18:05:23.842Z,19.01
2023-05-15T18:08:27.307Z,18.98
2023-05-15T18:11:30.090Z,18.91
2023-05-15T18:14:34.284Z,18.88
2023-05-15T18:17:37.098Z,18.83
2023-05-15T18:20:39.865Z,18.81
2023-05-15T18:23:42.781Z,18.79
2023-05-15T18:26:45.557Z,18.75
2023-05-15T18:29:49.767Z,18.61
2023-05-15T18:32:52.594Z,18.57
2023-05-15T18:35:55.668Z,18.47
2023-05-15T18:38:58.410Z,18.38
2023-05-15T18:42:01.262Z,18.33
2023-05-15T18:45:06.155Z,18.25
2023-05-15T18:48:09.166Z,18.15
2023-05-15T18:51:12.076Z,18.09
2023-05-15T18:54:14.884Z,18.05
2023-05-15T18:57:17.739Z,18.03
2023-05-15T19:00:34.033Z,17.99
2023-05-15T19:03:41.050Z,17.92
2023-05-15T19:06:44.275Z,17.89
2023-05-15T19:09:47.001Z,17.82
2023-05-15T19:12:49.721Z,17.76
2023-05-15T19:15:56.769Z,17.68
2023-05-15T19:19:00.268Z,17.61
2023-05-15T19:22:03.480Z,17.54
2023-05-15T19:25:07.198Z,17.44
2023-05-15T19:28:12.213Z,17.37
2023-05-15T19:31:27.892Z,17.32
2023-05-15T19:34:33.888Z,17.28
2023-05-15T19:37:36.639Z,17.19
2023-05-15T19:40:46.827Z,17.09
2023-05-15T19:43:50.928Z,17.08
2023-05-15T19:46:55.269Z,17.01
2023-05-15T19:49:58.004Z,16.84
2023-05-15T19:53:01.004Z,16.79
2023-05-15T19:56:03.983Z,16.76
2023-05-15T19:59:06.765Z,16.57
2023-05-15T20:02:11.252Z,16.56
2023-05-15T20:05:14.837Z,16.48
2023-05-15T20:08:17.676Z,16.44
2023-05-15T20:11:21.154Z,16.40
2023-05-15T20:14:24.040Z,16.32
2023-05-15T20:17:28.934Z,16.26
2023-05-15T20:20:31.876Z,16.21
2023-05-15T20:23:34.716Z,16.15
2023-05-15T20:26:37.580Z,16.10
2023-05-15T20:29:43.564Z,16.07
2023-05-15T20:32:47.678Z,15.99
2023-05-15T20:35:51.464Z,15.94
2023-05-15T20:38:55.076Z,15.84
2023-05-15T20:41:57.791Z,15.78
2023-05-15T20:45:00.473Z,15.69
2023-05-15T20:48:06.911Z,15.61
2023-05-15T20:51:09.576Z,15.53
2023-05-15T20:54:12.269Z,15.47
2023-05-15T20:57:15.097Z,15.42
2023-05-15T21:00:18.938Z,15.38
2023-05-15T21:03:23.027Z,15.25
2023-05-15T21:06:25.977Z,15.15
2023-05-15T21:09:28.932Z,15.04
2023-05-15T21:12:32.473Z,14.98
2023-05-15T21:15:35.147Z,14.93
2023-05-15T21:18:39.507Z,14.86
2023-05-15T21:21:42.158Z,14.85
2023-05-15T21:24:45.111Z,14.76
2023-05-15T21:27:47.811Z,14.73
2023-05-15T21:30:50.557Z,14.78
2023-05-15T21:33:55.903Z,14.77
2023-05-15T21:36:58.649Z,14.78
2023-05-15T21:40:01.786Z,14.79
2023-05-15T21:43:04.939Z,14.78
2023-05-15T21:46:07.862Z,14.73
2023-05-15T21:49:12.352Z,14.69
2023-05-15T21:52:15.436Z,14.66
2023-05-15T21:55:18.500Z,14.63
2023-05-15T21:58:23.760Z,14.62
2023-05-15T22:01:26.502Z,14.62
2023-05-15T22:04:30.701Z,14.58
2023-05-15T22:07:33.613Z,14.59
2023-05-15T22:10:36.489Z,14.59
2023-05-15T22:13:39.152Z,14.61
2023-05-15T22:16:42.821Z,14.58
2023-05-15T22:19:47.263Z,14.56
2023-05-15T22:22:50.060Z,14.52
2023-05-15T22:25:57.977Z,14.49
2023-05-15T22:29:00.696Z,14.34
2023-05-15T22:32:03.814Z,14.44
2023-05-15T22:35:09.671Z,14.38
2023-05-15T22:38:12.438Z,14.38
2023-05-15T22:41:18.312Z,14.33
2023-05-15T22:44:21.041Z,14.32
2023-05-15T22:47:23.828Z,14.27
2023-05-15T22:50:31.616Z,14.20
2023-05-15T22:53:34.644Z,14.19
2023-05-15T22:56:40.425Z,14.21
2023-05-15T22:59:45.491Z,14.20
2023-05-15T23:02:48.231Z,14.21
2023-05-15T23:05:53.127Z,14.17
2023-05-15T23:08:55.971Z,14.16
2023-05-15T23:11:58.648Z,14.16
2023-05-15T23:15:02.080Z,14.16
2023-05-15T23:18:05.521Z,14.06
2023-05-15T23:21:12.778Z,14.09
2023-05-15T23:24:16.143Z,14.01
2023-05-15T23:27:18.858Z,14.02
2023-05-15T23:30:21.925Z,14.00
2023-05-15T23:33:24.592Z,13.99
2023-05-15T23:36:28.624Z,13.96
2023-05-15T23:39:31.829Z,13.89
2023-05-15T23:42:34.636Z,13.88
2023-05-15T23:45:37.743Z,13.86
2023-05-15T23:48:40.578Z,13.86
2023-05-15T23:51:44.631Z,13.80
2023-05-15T23:54:47.507Z,13.81
2023-05-15T23:57:50.412Z,13.84
